Skip to main content

NOAA/GLERL Met Station at Muskegon, MI

Previous 5 days (top of hour only)
See also Previous 3 Hours (2 minute increments)
Jump down to Data
Switch to [English][Metric]
Zoom: Click and drag, Pan: shift-click and drag, Unzoom: double-click, Unzoom All






Note: Speed = mean wind during 2-minute period at top of hour,
Gust = max wind during 2-minute period at top of hour,
Peak = max wind during entire hour.
• See also 5-day windrose plot


NOAA/GLERL Met Station at Muskegon, MI

Previous 5 days (top of hour only)
See also Previous 3 Hours (2 minute increments)
Jump up to Graphs
Switch to [English][Metric]
                  Wind  Wind  Wind   Air   Dew   Rel     Sta   PAR
                   Spd   Gst   Dir  Temp    Pt   Hum    Pres uE/m2/
YYYY-MM-DD   EST   kts   kts   deg     F     F     %   in Hg   sec
2018-02-25 04:00  29.9  33.2   268  39.4  39.1  98.9   28.82     3
2018-02-25 03:00  15.2  19.1   165  42.8  42.4  98.4   28.77     3
2018-02-25 02:00  18.1  24.5   139  39.4  38.3  95.7   28.79     3
2018-02-25 01:00  20.4  24.5   128  38.3  36.3  92.5   28.85     3
2018-02-25 00:00  18.7  24.5   127  37.4  35.1  91.2   28.92     3
2018-02-24 23:00  16.9  24.1   123  37.2  32.9  84.1   29.00     3
2018-02-24 22:00  21.0  27.2   117  37.2  30.9  77.7   29.06     3
2018-02-24 21:00  20.4  28.8   122  37.4  30.8  76.8   29.10     3
2018-02-24 20:00  21.6  29.5   119  37.4  31.1  77.7   29.18     3
2018-02-24 19:00  17.5  23.7   115  37.8  31.4  77.7   29.25     3
2018-02-24 18:00  15.6  19.8   117  39.4  31.4  72.7   29.32    44
2018-02-24 17:00  16.5  21.4   116  40.5  30.2  66.4   29.31   231
2018-02-24 16:00  13.8  17.3   117  41.0  29.6  63.4   29.36   527
2018-02-24 15:00  14.2  18.5   115  40.8  29.2  62.9   29.40   750
2018-02-24 14:00   8.6  13.4   110  41.4  29.2  61.7   29.42   984
2018-02-24 13:00   9.5  15.2   110  39.2  28.4  64.8   29.49  1123
2018-02-24 12:00  12.2  16.1   116  37.9  27.3  65.2   29.52  1368
2018-02-24 11:00   9.3  13.2   101  35.2  27.2  72.1   29.56   612
2018-02-24 10:00   6.8   9.7    95  33.6  27.5  78.0   29.58   547
2018-02-24 09:00   7.4   8.9    75  31.6  26.6  81.4   29.59   299
2018-02-24 08:00   4.3   5.4   100  30.2  26.6  86.4   29.60    76
2018-02-24 07:00   4.5   5.4    51  29.1  26.9  91.2   29.60     2
2018-02-24 06:00   1.9   2.3    61  30.6  25.5  81.2   29.62     2
2018-02-24 05:00   5.1   5.6    35  31.3  26.2  81.4   29.60     2
2018-02-24 04:00   3.1   4.1    25  32.4  26.0  77.2   29.61     3
2018-02-24 03:00   7.4   9.7    30  32.9  26.5  77.1   29.63     3
2018-02-24 02:00   5.4   7.2    13  33.4  27.6  78.8   29.64     3
2018-02-24 01:00   6.8   8.7   358  33.6  28.2  80.4   29.64     3
2018-02-24 00:00  10.1  12.1     3  34.0  28.2  79.2   29.62     3
2018-02-23 23:00  10.9  11.7   343  33.8  30.7  88.3   29.62     3
2018-02-23 22:00  10.1  10.9   322  34.2  32.5  93.5   29.60     3
2018-02-23 21:00  10.7  11.9   301  34.9  32.9  92.2   29.60     3
2018-02-23 20:00   9.3  10.5   283  34.7  33.7  96.1   29.60     3
2018-02-23 19:00  10.7  11.1   286  34.3  34.0  98.6   29.58     3
2018-02-23 18:00  11.3  12.2   280  34.7  34.2  98.1   29.57    26
2018-02-23 17:00  11.7  12.1   286  34.5  34.4  99.5   29.55   105
2018-02-23 16:00  11.3  11.9   281  35.2  35.2  99.8   29.52   171
2018-02-23 15:00  12.8  13.4   280  35.2  35.2  99.8   29.50   388
2018-02-23 14:00  13.2  14.0   282  35.6  35.5  99.8   29.48   386
2018-02-23 13:00  15.0  15.6   268  35.8  35.7  99.8   29.48   339
2018-02-23 12:00   9.7  10.5   232  34.0  33.9  99.8   29.46   583
2018-02-23 11:00  10.1  10.3   210  34.0  33.9  99.8   29.46   257
2018-02-23 10:00   9.1   9.5   219  33.6  33.6  99.8   29.45   162
2018-02-23 09:00   6.2   7.6   170  36.1  36.1  99.8   29.45   102
2018-02-23 08:00   7.4   9.7   150  35.4  35.3  99.5   29.46    22
2018-02-23 07:00  10.3  12.6   131  34.0  33.4  97.8   29.46     3
2018-02-23 06:00   8.6  12.2   133  33.6  31.2  90.8   29.51     3
2018-02-23 05:00  13.6  16.3   127  33.4  29.6  85.5   29.52     3
2018-02-23 04:00  15.9  19.2   120  33.1  28.9  84.4   29.57     3
2018-02-23 03:00  15.2  22.4   118  33.3  27.8  80.1   29.63     3
2018-02-23 02:00  14.2  17.7   126  33.8  25.9  72.5   29.69     3
2018-02-23 01:00  11.7  15.4   124  34.0  24.6  68.2   29.71     3
2018-02-23 00:00  13.6  17.9   116  33.8  23.4  65.3   29.71     3
2018-02-22 23:00  13.0  17.1   124  34.2  23.4  64.3   29.76     3
2018-02-22 22:00  13.2  17.3   125  34.5  23.4  63.4   29.78     3
2018-02-22 21:00  14.6  18.1   107  34.5  24.8  67.2   29.80     3
2018-02-22 20:00  13.0  20.4   110  35.2  24.7  65.0   29.84     3
2018-02-22 19:00  12.6  15.4   101  35.6  25.3  65.8   29.84     3
2018-02-22 18:00   8.4  11.7    84  37.0  25.3  62.1   29.85    45
2018-02-22 17:00   7.2  10.3   100  38.1  23.1  54.4   29.87   215
2018-02-22 16:00  10.3  13.8   109  38.1  23.4  55.1   29.86   744
2018-02-22 15:00   8.0  11.5   124  37.2  24.0  58.6   29.90   485
2018-02-22 14:00  12.4  15.9   102  36.3  24.5  62.0   29.91   492
2018-02-22 13:00  11.3  14.8   108  36.3  25.5  64.6   29.93  1333
2018-02-22 12:00   6.4  10.3    85  34.5  25.4  68.9   29.97   945
2018-02-22 11:00  10.3  13.6    87  32.9  25.3  73.3   29.97  1512
2018-02-22 10:00   8.6  10.7    79  29.8  24.6  80.5   29.99   438
2018-02-22 09:00   8.7  10.9    87  28.0  22.9  80.8   29.99   225
2018-02-22 08:00   6.0   7.8    75  27.1  21.7  79.7   29.97    23
2018-02-22 07:00   4.5   6.0    76  26.4  20.7  78.9   29.96     2
2018-02-22 06:00   6.0   7.4    81  25.7  20.0  78.7   29.96     2
2018-02-22 05:00   6.2   8.2    86  25.0  19.3  78.7   29.96     2
2018-02-22 04:00   7.8   9.9    74  24.6  19.0  79.1   29.96     2
2018-02-22 03:00   5.2   6.6    60  24.3  19.1  80.5   29.99     2
2018-02-22 02:00   4.3   6.0    68  23.9  18.8  80.6   29.99     2
2018-02-22 01:00   5.8   8.0    69  24.1  18.5  78.9   30.00     2
2018-02-22 00:00   6.2   8.4    66  24.4  18.5  77.9   30.02     2
2018-02-21 23:00   6.4   7.4    70  24.6  17.8  75.0   30.02     2
2018-02-21 22:00   3.1   4.5    57  25.0  17.8  73.8   30.03     2
2018-02-21 21:00   3.7   5.4    24  25.2  19.0  77.3   30.02     2
2018-02-21 20:00   7.0   8.0     6  25.5  18.8  75.4   30.01     2
2018-02-21 19:00   9.9  12.2   355  26.2  20.2  77.7   30.00     2
2018-02-21 18:00  11.9  15.0   352  26.8  20.4  76.6   29.97    82
2018-02-21 17:00  14.8  15.7   349  27.3  20.7  75.8   29.95   344
2018-02-21 16:00  14.2  15.9   351  27.5  19.5  71.7   29.95   548
2018-02-21 15:00  13.4  15.4   352  28.2  20.7  73.0   29.94   806
2018-02-21 14:00  15.4  17.3   338  28.8  22.0  75.6   29.92  1001
2018-02-21 13:00  11.3  13.6   357  29.1  21.9  74.1   29.91  1050
2018-02-21 12:00  12.1  14.2   359  28.8  22.1  75.8   29.91   949
2018-02-21 11:00  11.7  14.8   355  28.9  22.8  77.5   29.88   678
2018-02-21 10:00  17.9  20.6   352  28.4  23.0  80.0   29.84   287
2018-02-21 09:00  11.3  14.8   359  29.5  23.5  78.0   29.80   193
2018-02-21 08:00  15.7  19.1   356  29.7  25.9  85.6   29.77    26
2018-02-21 07:00  17.5  22.6   357  29.7  26.0  86.1   29.73     2
2018-02-21 06:00  17.3  21.2   350  30.2  26.3  85.2   29.68     2
2018-02-21 05:00  15.9  23.5   357  30.6  25.8  82.2   29.62     2
2018-02-21 04:00  15.4  19.1   353  30.7  26.2  83.2   29.61     2
2018-02-21 03:00  16.7  19.1   346  30.7  26.2  83.2   29.57     2
2018-02-21 02:00  17.9  21.4   343  31.3  27.1  84.4   29.55     2
2018-02-21 01:00  19.8  22.6   344  32.4  30.0  90.8   29.52     3
2018-02-21 00:00  12.8  15.6   349  33.1  32.9  99.4   29.48     3
2018-02-20 23:00  12.4  15.4   328  34.2  34.1  99.8   29.47     2
2018-02-20 22:00   5.2   6.0   306  33.1  33.0  99.8   29.45     2
2018-02-20 21:00   7.4   7.8   336  34.0  33.9  99.8   29.41     3
2018-02-20 20:00  12.8  13.8   345  34.5  34.5  99.8   29.39     3
2018-02-20 19:00  16.3  18.1   343  36.1  36.1  99.8   29.35     3